Time;durP1;ratioP1;P1;durP2;ratioP2;P2;SDS_P1;SDS_P2;PMS_P1;PMS_P2;Temp;Humidity;BMP_temperature;BMP_pressure;BME280_temperature;BME280_humidity;BME280_pressure;Samples;Min_cycle;Max_cycle;Signal;HPM_P1;HPM_P2
2022/03/23 00:01:18;;;;;;;;;;;;;;;-143.90;100.00;55127.09;2084575;28;19929;-64
2022/03/23 00:02:39;;;;;;;;;;;;;;;-143.90;100.00;55123.13;2083408;28;20394;-65
2022/03/23 00:04:00;;;;;;;;;;;;;;;-143.90;100.00;55099.31;2083251;28;20308;-65
2022/03/23 00:05:20;;;;;;;;;;;;;;;-143.90;100.00;55111.22;2083685;28;19921;-65
2022/03/23 00:06:42;;;;;;;;;;;;;;;-143.90;100.00;55107.25;2083752;28;19964;-65
2022/03/23 00:08:03;;;;;;;;;;;;;;;-143.90;100.00;55099.31;2085246;28;19925;-64
2022/03/23 00:09:24;;;;;;;;;;;;;;;-143.90;100.00;55093.34;2084405;28;20408;-64
2022/03/23 00:10:44;;;;;;;;;;;;;;;-143.90;100.00;55109.22;2074584;28;20055;-64
2022/03/23 00:12:07;;;;;;;;;;;;;;;-143.90;100.00;55091.38;2080961;28;19920;-65
2022/03/23 00:13:28;;;;;;;;;;;;;;;-143.90;100.00;55115.19;2084299;28;19974;-65
2022/03/23 00:14:49;;;;;;;;;;;;;;;-143.90;100.00;55127.09;2085085;28;19956;-65
2022/03/23 00:16:10;;;;;;;;;;;;;;;-143.90;100.00;55123.13;2083294;28;20617;-65
2022/03/23 00:17:31;;;;;;;;;;;;;;;-143.90;100.00;55083.41;2083942;28;19936;-65
2022/03/23 00:18:52;;;;;;;;;;;;;;;-143.90;100.00;55107.25;2084257;28;19928;-65
2022/03/23 00:20:13;;;;;;;;;;;;;;;-143.90;100.00;55081.44;2082010;28;19920;-65
2022/03/23 00:21:34;;;;;;;;;;;;;;;-143.90;100.00;55087.41;2083407;28;19928;-65
2022/03/23 00:22:54;;;;;;;;;;;;;;;-143.90;100.00;55095.34;2084377;28;19920;-65
2022/03/23 00:24:15;;;;;;;;;;;;;;;-143.90;100.00;55091.38;2083948;28;19974;-65
2022/03/23 00:25:36;;;;;;;;;;;;;;;-143.90;100.00;55125.13;2084425;28;19932;-65
2022/03/23 00:26:57;;;;;;;;;;;;;;;-143.90;100.00;55131.06;2083231;28;19924;-65
2022/03/23 00:28:19;;;;;;;;;;;;;;;-143.90;100.00;55111.22;2082769;28;20035;-65
2022/03/23 00:29:40;;;;;;;;;;;;;;;-143.90;100.00;55146.97;2084505;28;20369;-65
2022/03/23 00:31:00;;;;;;;;;;;;;;;-143.90;100.00;55083.41;2084990;28;20402;-65
2022/03/23 00:32:23;;;;;;;;;;;;;;;-143.90;100.00;55103.28;2075514;28;20007;-65
2022/03/23 00:33:43;;;;;;;;;;;;;;;-143.90;100.00;55091.38;2080238;28;19921;-64
2022/03/23 00:35:04;;;;;;;;;;;;;;;-143.90;100.00;55107.25;2083890;28;19921;-65
2022/03/23 00:36:25;;;;;;;;;;;;;;;-143.90;100.00;55123.13;2084404;28;19920;-65
2022/03/23 00:37:46;;;;;;;;;;;;;;;-143.90;100.00;55135.03;2083674;28;19982;-65
2022/03/23 00:39:07;;;;;;;;;;;;;;;-143.90;100.00;55081.44;2085285;28;19927;-65
2022/03/23 00:40:28;;;;;;;;;;;;;;;-143.90;100.00;55158.88;2085312;28;20387;-65
2022/03/23 00:41:52;;;;;;;;;;;;;;;-143.90;100.00;55067.53;2084278;28;19971;-64
2022/03/23 00:43:13;;;;;;;;;;;;;;;-143.90;100.00;55099.31;2076375;28;19921;-65
2022/03/23 00:44:34;;;;;;;;;;;;;;;-143.90;100.00;55127.09;2080045;28;19920;-64
2022/03/23 00:45:55;;;;;;;;;;;;;;;-143.90;100.00;55099.31;2083122;28;20007;-65
2022/03/23 00:47:16;;;;;;;;;;;;;;;-143.90;100.00;55103.28;2083082;28;19920;-65
2022/03/23 00:48:36;;;;;;;;;;;;;;;-143.90;100.00;55091.38;2084964;28;19920;-65
2022/03/23 00:49:57;;;;;;;;;;;;;;;-143.90;100.00;55123.13;2084510;28;20035;-64
2022/03/23 00:51:18;;;;;;;;;;;;;;;-143.90;100.00;55111.22;2083892;28;20023;-65
2022/03/23 00:52:38;;;;;;;;;;;;;;;-143.90;100.00;55111.22;2084138;28;19928;-64
2022/03/23 00:54:01;;;;;;;;;;;;;;;-143.90;100.00;55085.41;2083616;28;19928;-65
2022/03/23 00:55:22;;;;;;;;;;;;;;;-143.90;100.00;55131.06;2083942;28;19921;-65
2022/03/23 00:56:42;;;;;;;;;;;;;;;-143.90;100.00;55154.91;2084843;28;19950;-65
2022/03/23 00:58:03;;;;;;;;;;;;;;;-143.90;100.00;55115.19;2085079;28;20011;-65
2022/03/23 00:59:24;;;;;;;;;;;;;;;-143.90;100.00;55107.25;2074415;28;19921;-65
2022/03/23 01:00:45;;;;;;;;;;;;;;;-143.90;100.00;55154.91;2071081;28;20710;-65
2022/03/23 01:02:07;;;;;;;;;;;;;;;-143.90;100.00;55129.09;2081241;28;19920;-64
2022/03/23 01:03:28;;;;;;;;;;;;;;;-143.90;100.00;55129.09;2086709;28;20086;-64
2022/03/23 01:04:49;;;;;;;;;;;;;;;-143.90;100.00;55146.97;2085039;28;20374;-65
2022/03/23 01:06:10;;;;;;;;;;;;;;;-143.90;100.00;55123.13;2085421;28;19979;-64
2022/03/23 01:07:32;;;;;;;;;;;;;;;-143.90;100.00;55099.31;2084895;28;20023;-65
2022/03/23 01:08:53;;;;;;;;;;;;;;;-143.90;100.00;55091.38;2076591;28;20369;-65
2022/03/23 01:10:14;;;;;;;;;;;;;;;-143.90;100.00;55119.16;2080682;28;19967;-62
2022/03/23 01:11:37;;;;;;;;;;;;;;;-143.90;100.00;55091.38;2077126;28;20634;-65
2022/03/23 01:12:57;;;;;;;;;;;;;;;-143.90;100.00;55123.13;2084205;28;19920;-65
2022/03/23 01:14:18;;;;;;;;;;;;;;;-143.90;100.00;55119.16;2086072;28;20030;-65
2022/03/23 01:15:39;;;;;;;;;;;;;;;-143.90;100.00;55135.03;2085610;28;19978;-65
2022/03/23 01:17:00;;;;;;;;;;;;;;;-143.90;100.00;55087.41;2075994;28;20851;-65
2022/03/23 01:18:21;;;;;;;;;;;;;;;-143.90;100.00;55129.09;2070599;28;19921;-64
2022/03/23 01:19:41;;;;;;;;;;;;;;;-143.90;100.00;55131.06;2074731;28;19917;-62
2022/03/23 01:21:02;;;;;;;;;;;;;;;-143.90;100.00;55170.78;2083139;28;20360;-63
2022/03/23 01:22:23;;;;;;;;;;;;;;;-143.90;100.00;55113.22;2085696;28;19921;-63
2022/03/23 01:23:44;;;;;;;;;;;;;;;-143.90;100.00;55115.19;2076849;28;20032;-63
2022/03/23 01:25:05;;;;;;;;;;;;;;;-143.90;100.00;55091.38;2074388;28;19928;-62
2022/03/23 01:26:26;;;;;;;;;;;;;;;-143.90;100.00;55150.94;2081223;28;19920;-63
2022/03/23 01:27:50;;;;;;;;;;;;;;;-143.90;100.00;55198.59;2085639;28;19928;-62
2022/03/23 01:29:11;;;;;;;;;;;;;;;-143.90;100.00;55083.41;2085294;28;19948;-61
2022/03/23 01:30:34;;;;;;;;;;;;;;;-143.90;100.00;55087.41;2085685;28;19928;-62
2022/03/23 01:31:57;;;;;;;;;;;;;;;-143.90;100.00;55119.16;2084002;28;19967;-63
2022/03/23 01:33:18;;;;;;;;;;;;;;;-143.90;100.00;55119.16;2084559;28;19933;-62
2022/03/23 01:34:39;;;;;;;;;;;;;;;-143.90;100.00;55154.91;2084296;28;20039;-63
2022/03/23 01:36:00;;;;;;;;;;;;;;;-143.90;100.00;55127.09;2076702;28;20470;-63
2022/03/23 01:37:20;;;;;;;;;;;;;;;-143.90;100.00;55091.38;2082731;28;19928;-63
2022/03/23 01:38:41;;;;;;;;;;;;;;;-143.90;100.00;55101.28;2085448;28;19920;-63
2022/03/23 01:40:06;;;;;;;;;;;;;;;-143.90;100.00;55139.03;2076841;28;19955;-62
2022/03/23 01:41:26;;;;;;;;;;;;;;;-143.90;100.00;55123.13;2081707;28;20058;-62
2022/03/23 01:42:48;;;;;;;;;;;;;;;-143.90;100.00;55111.22;2086558;27;22088;-63
2022/03/23 01:44:13;;;;;;;;;;;;;;;-143.90;100.00;55115.19;2084712;28;19928;-62
2022/03/23 01:45:34;;;;;;;;;;;;;;;-143.90;100.00;55135.03;2084988;28;19967;-62
2022/03/23 01:47:00;;;;;;;;;;;;;;;-143.90;100.00;55139.03;2083459;28;19921;-63
2022/03/23 01:48:20;;;;;;;;;;;;;;;-143.90;100.00;55095.34;2083520;28;19944;-63
2022/03/23 01:49:44;;;;;;;;;;;;;;;-143.90;100.00;55123.13;2084320;28;19920;-63
2022/03/23 01:51:06;;;;;;;;;;;;;;;-143.90;100.00;55131.06;2085633;28;19920;-62
2022/03/23 01:52:28;;;;;;;;;;;;;;;-143.90;100.00;55137.03;2085173;28;19921;-63
2022/03/23 01:53:48;;;;;;;;;;;;;;;-143.90;100.00;55119.16;2076661;28;20039;-62
2022/03/23 01:55:14;;;;;;;;;;;;;;;-143.90;100.00;55087.41;2075612;28;19920;-62
2022/03/23 01:56:35;;;;;;;;;;;;;;;-143.90;100.00;55119.16;2082012;28;19929;-63
2022/03/23 01:57:55;;;;;;;;;;;;;;;-143.90;100.00;55115.19;2074567;28;19925;-63
2022/03/23 01:59:16;;;;;;;;;;;;;;;-143.90;100.00;55123.13;2069650;28;19932;-63
2022/03/23 02:00:38;;;;;;;;;;;;;;;-143.90;100.00;55150.94;2082548;28;19921;-63
2022/03/23 02:01:59;;;;;;;;;;;;;;;-143.90;100.00;55143.00;2076777;28;20011;-62
2022/03/23 02:03:22;;;;;;;;;;;;;;;-143.90;100.00;55111.22;2077309;28;19965;-62
2022/03/23 02:04:43;;;;;;;;;;;;;;;-143.90;100.00;55119.16;2075146;28;19932;-62
2022/03/23 02:06:04;;;;;;;;;;;;;;;-143.90;100.00;55099.31;2082760;28;19995;-62
2022/03/23 02:07:25;;;;;;;;;;;;;;;-143.90;100.00;55095.34;2076153;28;19921;-62
2022/03/23 02:08:47;;;;;;;;;;;;;;;-143.90;100.00;55143.00;2075719;28;19932;-62
2022/03/23 02:10:08;;;;;;;;;;;;;;;-143.90;100.00;55146.97;2075380;28;19927;-63
2022/03/23 02:11:41;;;;;;;;;;;;;;;-143.90;100.00;55123.13;2075386;28;20435;-63
2022/03/23 02:13:02;;;;;;;;;;;;;;;-143.90;100.00;55125.13;2080538;28;20011;-62
2022/03/23 02:14:23;;;;;;;;;;;;;;;-143.90;100.00;55139.03;2085379;28;19975;-62
2022/03/23 02:15:44;;;;;;;;;;;;;;;-143.90;100.00;55154.91;2077026;28;20027;-63
2022/03/23 02:17:05;;;;;;;;;;;;;;;-143.90;100.00;55119.16;2082960;28;19932;-63
2022/03/23 02:18:26;;;;;;;;;;;;;;;-143.90;100.00;55156.88;2075344;28;19944;-62
2022/03/23 02:19:48;;;;;;;;;;;;;;;-143.90;100.00;55107.25;2080156;28;19974;-62
2022/03/23 02:21:12;;;;;;;;;;;;;;;-143.90;100.00;55135.03;2075210;28;19928;-63
2022/03/23 02:22:33;;;;;;;;;;;;;;;-143.90;100.00;55113.22;2074596;28;20717;-63
2022/03/23 02:23:54;;;;;;;;;;;;;;;-143.90;100.00;55135.03;2082299;28;19928;-62
2022/03/23 02:25:18;;;;;;;;;;;;;;;-143.90;100.00;55127.09;2083837;28;19925;-63
2022/03/23 02:26:39;;;;;;;;;;;;;;;-143.90;100.00;55143.00;2083644;28;19932;-63
2022/03/23 02:27:59;;;;;;;;;;;;;;;-143.90;100.00;55113.22;2076423;28;19963;-63
2022/03/23 02:29:21;;;;;;;;;;;;;;;-143.90;100.00;55091.38;2082675;28;19931;-62
2022/03/23 02:30:41;;;;;;;;;;;;;;;-143.90;100.00;55123.13;2086384;28;19928;-62
2022/03/23 02:32:02;;;;;;;;;;;;;;;-143.90;100.00;55091.38;2082705;28;19927;-63
2022/03/23 02:33:23;;;;;;;;;;;;;;;-143.90;100.00;55125.13;2083780;28;19925;-63
2022/03/23 02:34:44;;;;;;;;;;;;;;;-143.90;100.00;55146.97;2085301;28;19931;-62
2022/03/23 02:36:05;;;;;;;;;;;;;;;-143.90;100.00;55131.06;2084890;28;19927;-62
2022/03/23 02:37:26;;;;;;;;;;;;;;;-143.90;100.00;55123.13;2085886;28;19928;-62
2022/03/23 02:38:47;;;;;;;;;;;;;;;-143.90;100.00;55137.03;2086204;28;19960;-63
2022/03/23 02:40:08;;;;;;;;;;;;;;;-143.90;100.00;55099.31;2084272;28;20067;-62
2022/03/23 02:41:29;;;;;;;;;;;;;;;-143.90;100.00;55131.06;2083101;28;19921;-62
2022/03/23 02:42:50;;;;;;;;;;;;;;;-143.90;100.00;55111.22;2085015;28;19928;-63
2022/03/23 02:44:16;;;;;;;;;;;;;;;-143.90;100.00;55135.03;2085579;28;20039;-61
2022/03/23 02:45:37;;;;;;;;;;;;;;;-143.90;100.00;55111.22;2084812;28;19974;-62
2022/03/23 02:46:57;;;;;;;;;;;;;;;-143.90;100.00;55148.94;2083379;28;19986;-63
2022/03/23 02:48:18;;;;;;;;;;;;;;;-143.90;100.00;55131.06;2083976;28;19931;-62
2022/03/23 02:49:39;;;;;;;;;;;;;;;-143.90;100.00;55101.28;2084368;28;19924;-63
2022/03/23 02:51:00;;;;;;;;;;;;;;;-143.90;100.00;55150.94;2084608;28;19925;-62
2022/03/23 02:52:21;;;;;;;;;;;;;;;-143.90;100.00;55089.38;2085098;28;20010;-62
2022/03/23 03:02:37;;;;;;;;;;;;;;;-143.90;100.00;55089.38;2086484;28;20633;-63
2022/03/23 03:03:59;;;;;;;;;;;;;;;-143.90;100.00;55135.03;2076728;28;19921;-62
2022/03/23 03:05:19;;;;;;;;;;;;;;;-143.90;100.00;55131.06;2080949;28;20015;-60
2022/03/23 03:06:40;;;;;;;;;;;;;;;-143.90;100.00;55146.97;2084659;28;20041;-63
2022/03/23 03:09:40;;;;;;;;;;;;;;;-143.90;100.00;55135.03;2076172;28;20011;-62
2022/03/23 03:11:00;;;;;;;;;;;;;;;-143.90;100.00;55131.06;2082563;28;19922;-60
2022/03/23 03:12:22;;;;;;;;;;;;;;;-143.90;100.00;55119.16;2084184;28;19957;-62
2022/03/23 03:13:42;;;;;;;;;;;;;;;-143.90;100.00;55137.03;2084367;28;19927;-62
2022/03/23 03:15:03;;;;;;;;;;;;;;;-143.90;100.00;55107.25;2075916;28;20032;-62
2022/03/23 03:16:24;;;;;;;;;;;;;;;-143.90;100.00;55095.34;2081241;28;20015;-62
2022/03/23 03:17:48;;;;;;;;;;;;;;;-143.90;100.00;55154.91;2084502;28;19931;-62
2022/03/23 03:19:10;;;;;;;;;;;;;;;-143.90;100.00;55095.34;2084337;28;19931;-63
2022/03/23 03:20:30;;;;;;;;;;;;;;;-143.90;100.00;55119.16;2083667;28;19967;-62
2022/03/23 03:21:51;;;;;;;;;;;;;;;-143.90;100.00;55135.03;2085039;28;19963;-63
2022/03/23 03:23:12;;;;;;;;;;;;;;;-143.90;100.00;55123.13;2083525;28;19921;-62
2022/03/23 03:24:33;;;;;;;;;;;;;;;-143.90;100.00;55121.16;2083923;28;19920;-62
2022/03/23 03:25:53;;;;;;;;;;;;;;;-143.90;100.00;55099.31;2085023;28;20039;-62
2022/03/23 03:27:14;;;;;;;;;;;;;;;-143.90;100.00;55115.19;2083963;28;19921;-61
2022/03/23 03:28:35;;;;;;;;;;;;;;;-143.90;100.00;55123.13;2083677;28;19925;-60
2022/03/23 03:29:56;;;;;;;;;;;;;;;-143.90;100.00;55097.31;2084333;28;19931;-61
2022/03/23 03:31:17;;;;;;;;;;;;;;;-143.90;100.00;55111.22;2083759;28;19967;-61
2022/03/23 03:32:38;;;;;;;;;;;;;;;-143.90;100.00;55121.16;2083749;28;19921;-61
2022/03/23 03:33:58;;;;;;;;;;;;;;;-143.90;100.00;55099.31;2085314;28;20031;-61
2022/03/23 03:35:19;;;;;;;;;;;;;;;-143.90;100.00;55131.06;2084301;28;20304;-61
2022/03/23 03:36:41;;;;;;;;;;;;;;;-143.90;100.00;55115.19;2084540;28;19925;-61
2022/03/23 03:38:01;;;;;;;;;;;;;;;-143.90;100.00;55148.94;2082921;28;19921;-61
2022/03/23 03:39:22;;;;;;;;;;;;;;;-143.90;100.00;55115.19;2084361;28;19931;-61
2022/03/23 03:40:43;;;;;;;;;;;;;;;-143.90;100.00;55103.28;2084737;28;19921;-61
2022/03/23 03:42:04;;;;;;;;;;;;;;;-143.90;100.00;55101.28;2083339;28;19928;-61
2022/03/23 03:43:25;;;;;;;;;;;;;;;-143.90;100.00;55109.22;2084484;28;19966;-61
2022/03/23 03:44:45;;;;;;;;;;;;;;;-143.90;100.00;55141.00;2084097;28;19979;-61
2022/03/23 03:46:06;;;;;;;;;;;;;;;-143.90;100.00;55123.13;2085025;28;20360;-61
2022/03/23 03:47:27;;;;;;;;;;;;;;;-143.90;100.00;55123.13;2085001;28;19924;-59
2022/03/23 03:48:48;;;;;;;;;;;;;;;-143.90;100.00;55121.16;2085342;28;19928;-59
2022/03/23 03:50:09;;;;;;;;;;;;;;;-143.90;100.00;55099.31;2084587;28;19920;-61
2022/03/23 03:51:30;;;;;;;;;;;;;;;-143.90;100.00;55115.19;2075167;28;19972;-64
2022/03/23 03:52:50;;;;;;;;;;;;;;;-143.90;100.00;55107.25;2082294;28;19947;-61
2022/03/23 03:54:11;;;;;;;;;;;;;;;-143.90;100.00;55115.19;2083167;28;20439;-61
2022/03/23 03:55:32;;;;;;;;;;;;;;;-143.90;100.00;55123.13;2084839;28;19931;-61
2022/03/23 03:56:52;;;;;;;;;;;;;;;-143.90;100.00;55117.19;2083507;28;20090;-61
2022/03/23 03:58:14;;;;;;;;;;;;;;;-143.90;100.00;55123.13;2081791;28;20012;-61
2022/03/23 03:59:35;;;;;;;;;;;;;;;-143.90;100.00;55077.47;2083703;28;19932;-61
2022/03/23 04:00:55;;;;;;;;;;;;;;;-143.90;100.00;55139.03;2082366;28;19921;-61
2022/03/23 04:02:16;;;;;;;;;;;;;;;-143.90;100.00;55119.16;2084729;28;19920;-61
2022/03/23 04:03:37;;;;;;;;;;;;;;;-143.90;100.00;55162.84;2083300;28;20027;-60
2022/03/23 04:04:58;;;;;;;;;;;;;;;-143.90;100.00;55115.19;2085896;28;19925;-61
2022/03/23 04:06:20;;;;;;;;;;;;;;;-143.90;100.00;55125.13;2086415;28;20398;-61
2022/03/23 04:07:40;;;;;;;;;;;;;;;-143.90;100.00;55119.16;2084873;28;19920;-61
2022/03/23 04:09:01;;;;;;;;;;;;;;;-143.90;100.00;55111.22;2080531;28;19928;-60
2022/03/23 04:10:22;;;;;;;;;;;;;;;-143.90;100.00;55115.19;2071917;28;19952;-61
2022/03/23 04:11:44;;;;;;;;;;;;;;;-143.90;100.00;55103.28;2078443;28;19925;-61
2022/03/23 04:13:08;;;;;;;;;;;;;;;-143.90;100.00;55111.22;2082842;28;19920;-61
2022/03/23 04:14:28;;;;;;;;;;;;;;;-143.90;100.00;55143.00;2083956;28;19924;-62
2022/03/23 04:15:50;;;;;;;;;;;;;;;-143.90;100.00;55115.19;2082730;28;19925;-61
2022/03/23 04:17:11;;;;;;;;;;;;;;;-143.90;100.00;55158.88;2083687;28;20495;-59
2022/03/23 04:18:31;;;;;;;;;;;;;;;-143.90;100.00;55131.06;2083986;28;19925;-61
2022/03/23 04:19:52;;;;;;;;;;;;;;;-143.90;100.00;55123.13;2082076;28;19943;-61
2022/03/23 04:21:13;;;;;;;;;;;;;;;-143.90;100.00;55123.13;2082468;28;20015;-61
2022/03/23 04:22:33;;;;;;;;;;;;;;;-143.90;100.00;55111.22;2082602;28;19921;-60
2022/03/23 04:23:54;;;;;;;;;;;;;;;-143.90;100.00;55144.97;2083785;28;20023;-61
2022/03/23 04:25:15;;;;;;;;;;;;;;;-143.90;100.00;55133.06;2083990;28;19936;-61
2022/03/23 04:26:35;;;;;;;;;;;;;;;-143.90;100.00;55095.34;2083275;28;20629;-60
2022/03/23 04:27:56;;;;;;;;;;;;;;;-143.90;100.00;55107.25;2083482;28;19921;-61
2022/03/23 04:29:17;;;;;;;;;;;;;;;-143.90;100.00;55099.31;2084183;28;20654;-61
2022/03/23 04:30:38;;;;;;;;;;;;;;;-143.90;100.00;55107.25;2084619;28;20055;-61
2022/03/23 04:31:59;;;;;;;;;;;;;;;-143.90;100.00;55083.41;2083916;28;19920;-61
2022/03/23 04:33:19;;;;;;;;;;;;;;;-143.90;100.00;55101.28;2083973;28;19925;-61
2022/03/23 04:34:40;;;;;;;;;;;;;;;-143.90;100.00;55119.16;2083364;28;20392;-61
2022/03/23 04:36:04;;;;;;;;;;;;;;;-143.90;100.00;55143.00;2083237;28;20001;-61
2022/03/23 04:37:24;;;;;;;;;;;;;;;-143.90;100.00;55113.22;2085733;28;19921;-61
2022/03/23 04:38:45;;;;;;;;;;;;;;;-143.90;100.00;55123.13;2084375;28;19925;-61
2022/03/23 04:40:07;;;;;;;;;;;;;;;-143.90;100.00;55111.22;2081930;28;19921;-60
2022/03/23 04:41:28;;;;;;;;;;;;;;;-143.90;100.00;55131.06;2082334;28;19932;-60
2022/03/23 04:42:49;;;;;;;;;;;;;;;-143.90;100.00;55109.22;2083979;28;19921;-61
2022/03/23 04:44:11;;;;;;;;;;;;;;;-143.90;100.00;55127.09;2082428;28;19921;-61
2022/03/23 04:45:33;;;;;;;;;;;;;;;-143.90;100.00;55075.47;2082913;28;19920;-61
2022/03/23 04:46:53;;;;;;;;;;;;;;;-143.90;100.00;55119.16;2084071;28;19991;-60
2022/03/23 04:48:14;;;;;;;;;;;;;;;-143.90;100.00;55107.25;2075154;28;19921;-61
2022/03/23 04:49:35;;;;;;;;;;;;;;;-143.90;100.00;55059.59;2081258;28;20596;-61
2022/03/23 04:50:55;;;;;;;;;;;;;;;-143.90;100.00;55093.34;2082943;28;20517;-60
2022/03/23 04:52:16;;;;;;;;;;;;;;;-143.90;100.00;55099.31;2082440;28;19921;-61
2022/03/23 04:53:37;;;;;;;;;;;;;;;-143.90;100.00;55089.38;2084400;28;19918;-61
2022/03/23 04:54:58;;;;;;;;;;;;;;;-143.90;100.00;55119.16;2084352;28;20020;-61
2022/03/23 04:56:19;;;;;;;;;;;;;;;-143.90;100.00;55103.28;2084411;28;20036;-61
2022/03/23 04:57:40;;;;;;;;;;;;;;;-143.90;100.00;55089.38;2082744;28;20459;-61
2022/03/23 04:59:01;;;;;;;;;;;;;;;-143.90;100.00;55073.50;2083459;28;19978;-61
2022/03/23 05:00:22;;;;;;;;;;;;;;;-143.90;100.00;55101.28;2083054;28;19967;-61
2022/03/23 05:01:42;;;;;;;;;;;;;;;-143.90;100.00;55083.41;2083826;28;19928;-61
2022/03/23 05:03:04;;;;;;;;;;;;;;;-143.90;100.00;55123.13;2083674;28;19928;-61
2022/03/23 05:04:25;;;;;;;;;;;;;;;-143.90;100.00;55123.13;2083670;28;19917;-59
2022/03/23 05:05:46;;;;;;;;;;;;;;;-143.90;100.00;55111.22;2083155;28;19971;-61
2022/03/23 05:07:07;;;;;;;;;;;;;;;-143.90;100.00;55109.22;2082772;28;19920;-63
2022/03/23 05:08:27;;;;;;;;;;;;;;;-143.90;100.00;55154.91;2082684;28;19921;-60
2022/03/23 05:09:48;;;;;;;;;;;;;;;-143.90;100.00;55143.00;2081233;28;19935;-58
2022/03/23 05:11:09;;;;;;;;;;;;;;;-143.90;100.00;55113.22;2084101;28;19939;-61
2022/03/23 05:12:30;;;;;;;;;;;;;;;-143.90;100.00;55119.16;2082627;28;19932;-61
2022/03/23 05:13:50;;;;;;;;;;;;;;;-143.90;100.00;55101.28;2082592;28;19952;-61
2022/03/23 05:15:11;;;;;;;;;;;;;;;-143.90;100.00;55123.13;2082571;28;19935;-61
2022/03/23 05:16:32;;;;;;;;;;;;;;;-143.90;100.00;55077.47;2083860;28;19927;-61
2022/03/23 05:17:53;;;;;;;;;;;;;;;-143.90;100.00;55095.34;2083567;28;20002;-61
2022/03/23 05:19:13;;;;;;;;;;;;;;;-143.90;100.00;55131.06;2082657;28;19923;-61
2022/03/23 05:20:34;;;;;;;;;;;;;;;-143.90;100.00;55168.81;2083879;28;20061;-61
2022/03/23 05:21:55;;;;;;;;;;;;;;;-143.90;100.00;55141.00;2084411;28;19916;-61
2022/03/23 05:23:16;;;;;;;;;;;;;;;-143.90;100.00;55081.44;2082026;28;20047;-61
2022/03/23 05:24:37;;;;;;;;;;;;;;;-143.90;100.00;55127.09;2082402;28;19971;-61
2022/03/23 05:25:57;;;;;;;;;;;;;;;-143.90;100.00;55115.19;2082644;28;19939;-63
2022/03/23 05:27:18;;;;;;;;;;;;;;;-143.90;100.00;55131.06;2081864;28;20002;-61
2022/03/23 05:28:39;;;;;;;;;;;;;;;-143.90;100.00;55125.13;2075915;28;19952;-61
2022/03/23 05:30:00;;;;;;;;;;;;;;;-143.90;100.00;55123.13;2081253;28;20063;-61
2022/03/23 05:31:21;;;;;;;;;;;;;;;-143.90;100.00;55146.97;2083147;28;19917;-61
2022/03/23 05:32:42;;;;;;;;;;;;;;;-143.90;100.00;55077.47;2081967;28;19928;-61
2022/03/23 05:34:03;;;;;;;;;;;;;;;-143.90;100.00;55095.34;2082085;28;19928;-61
2022/03/23 05:35:24;;;;;;;;;;;;;;;-143.90;100.00;55127.09;2083509;28;20380;-60
2022/03/23 05:36:45;;;;;;;;;;;;;;;-143.90;100.00;55103.28;2084202;28;19921;-61
2022/03/23 05:38:06;;;;;;;;;;;;;;;-143.90;100.00;55123.13;2083844;28;19916;-61
2022/03/23 05:39:27;;;;;;;;;;;;;;;-143.90;100.00;55127.09;2083351;28;19935;-60
2022/03/23 05:40:47;;;;;;;;;;;;;;;-143.90;100.00;55103.28;2083866;28;19916;-61
2022/03/23 05:42:08;;;;;;;;;;;;;;;-143.90;100.00;55115.19;2082448;28;20388;-61
2022/03/23 05:43:29;;;;;;;;;;;;;;;-143.90;100.00;55115.19;2084362;28;20074;-61
2022/03/23 05:44:50;;;;;;;;;;;;;;;-143.90;100.00;55119.16;2084005;28;20402;-61
2022/03/23 05:46:11;;;;;;;;;;;;;;;-143.90;100.00;55125.13;2083859;28;20295;-61
2022/03/23 05:47:32;;;;;;;;;;;;;;;-143.90;100.00;55107.25;2083693;28;19928;-62
2022/03/23 05:48:53;;;;;;;;;;;;;;;-143.90;100.00;55087.41;2084150;28;19916;-61
2022/03/23 05:50:14;;;;;;;;;;;;;;;-143.90;100.00;55135.03;2084829;28;19920;-62
2022/03/23 05:51:35;;;;;;;;;;;;;;;-143.90;100.00;55071.50;2085254;28;19921;-61
2022/03/23 05:52:55;;;;;;;;;;;;;;;-143.90;100.00;55107.25;2085912;28;19956;-61
2022/03/23 05:54:17;;;;;;;;;;;;;;;-143.90;100.00;55146.97;2083704;28;19917;-61
2022/03/23 05:55:38;;;;;;;;;;;;;;;-143.90;100.00;55095.34;2084674;28;19927;-62
2022/03/23 05:57:02;;;;;;;;;;;;;;;-143.90;100.00;55117.19;2085391;28;20371;-62
2022/03/23 05:58:23;;;;;;;;;;;;;;;-143.90;100.00;55087.41;2084433;28;20347;-62
2022/03/23 05:59:44;;;;;;;;;;;;;;;-143.90;100.00;55085.41;2086087;28;20784;-61
2022/03/23 06:01:05;;;;;;;;;;;;;;;-143.90;100.00;55123.13;2085133;28;19921;-61
2022/03/23 06:02:26;;;;;;;;;;;;;;;-143.90;100.00;55158.88;2075928;28;19917;-61
2022/03/23 06:03:49;;;;;;;;;;;;;;;-143.90;100.00;55079.44;2081441;28;19928;-62
2022/03/23 06:05:10;;;;;;;;;;;;;;;-143.90;100.00;55087.41;2085185;28;20930;-62
2022/03/23 06:06:31;;;;;;;;;;;;;;;-143.90;100.00;55099.31;2085444;28;19927;-61
2022/03/23 06:07:52;;;;;;;;;;;;;;;-143.90;100.00;55127.09;2085615;28;19990;-61
2022/03/23 06:09:12;;;;;;;;;;;;;;;-143.90;100.00;55117.19;2085700;28;19921;-62
2022/03/23 06:10:33;;;;;;;;;;;;;;;-143.90;100.00;55111.22;2084406;28;19931;-62
2022/03/23 06:11:54;;;;;;;;;;;;;;;-143.90;100.00;55099.31;2084610;28;20284;-61
2022/03/23 06:13:15;;;;;;;;;;;;;;;-143.90;100.00;55121.16;2084221;28;19932;-61
2022/03/23 06:14:37;;;;;;;;;;;;;;;-143.90;100.00;55083.41;2083364;28;19942;-62
2022/03/23 06:15:58;;;;;;;;;;;;;;;-143.90;100.00;55109.22;2084866;28;19921;-62
2022/03/23 06:17:19;;;;;;;;;;;;;;;-143.90;100.00;55085.41;2077808;28;20502;-62
2022/03/23 06:18:40;;;;;;;;;;;;;;;-143.90;100.00;55091.38;2081915;28;19931;-62
2022/03/23 06:20:02;;;;;;;;;;;;;;;-143.90;100.00;55125.13;2083701;28;19920;-64
2022/03/23 06:21:22;;;;;;;;;;;;;;;-143.90;100.00;55107.25;2076408;28;20031;-62
2022/03/23 06:22:43;;;;;;;;;;;;;;;-143.90;100.00;55103.28;2080338;28;20738;-64
2022/03/23 06:24:04;;;;;;;;;;;;;;;-143.90;100.00;55053.63;2084973;28;19921;-64
2022/03/23 06:25:26;;;;;;;;;;;;;;;-143.90;100.00;55107.25;2085232;28;19925;-65
2022/03/23 06:26:47;;;;;;;;;;;;;;;-143.90;100.00;55135.03;2077212;28;20010;-64
2022/03/23 06:28:07;;;;;;;;;;;;;;;-143.90;100.00;55067.53;2081831;28;19995;-65
2022/03/23 06:29:28;;;;;;;;;;;;;;;-143.90;100.00;55089.38;2084498;28;20494;-64
2022/03/23 06:30:50;;;;;;;;;;;;;;;-143.90;100.00;55077.47;2084960;28;19917;-64
2022/03/23 06:32:12;;;;;;;;;;;;;;;-143.90;100.00;55077.47;2083824;28;20336;-64
2022/03/23 06:33:33;;;;;;;;;;;;;;;-143.90;100.00;55087.41;2085124;28;19991;-65
2022/03/23 06:34:54;;;;;;;;;;;;;;;-143.90;100.00;55107.25;2085839;28;19971;-64
2022/03/23 06:36:14;;;;;;;;;;;;;;;-143.90;100.00;55087.41;2083741;28;19916;-65
2022/03/23 06:37:36;;;;;;;;;;;;;;;-143.90;100.00;55061.59;2083517;28;20019;-64
2022/03/23 06:38:56;;;;;;;;;;;;;;;-143.90;100.00;55071.50;2084493;28;19921;-65
2022/03/23 06:40:18;;;;;;;;;;;;;;;-143.90;100.00;55075.47;2084779;28;19932;-64
2022/03/23 06:41:39;;;;;;;;;;;;;;;-143.90;100.00;55081.44;2084160;28;19994;-65
2022/03/23 06:43:00;;;;;;;;;;;;;;;-143.90;100.00;55055.63;2085594;28;19923;-65
2022/03/23 06:44:21;;;;;;;;;;;;;;;-143.90;100.00;55095.34;2084479;28;19964;-64
2022/03/23 06:45:42;;;;;;;;;;;;;;;-143.90;96.50;55091.38;2084519;28;19953;-64
2022/03/23 06:47:03;;;;;;;;;;;;;;;-143.90;91.55;55095.34;2084996;28;20680;-62
2022/03/23 06:48:24;;;;;;;;;;;;;;;-143.90;88.65;55073.50;2083353;28;19978;-63
2022/03/23 06:49:44;;;;;;;;;;;;;;;-143.90;86.77;55071.50;2083911;28;19924;-63
2022/03/23 06:51:05;;;;;;;;;;;;;;;-143.90;82.50;55059.59;2084586;28;19928;-63
2022/03/23 06:52:25;;;;;;;;;;;;;;;-143.90;80.86;55069.53;2083731;28;19916;-63
2022/03/23 06:53:46;;;;;;;;;;;;;;;-143.90;77.77;55087.41;2084259;28;20017;-63
2022/03/23 06:55:07;;;;;;;;;;;;;;;-143.90;77.02;55059.59;2084463;28;19921;-63
2022/03/23 06:56:28;;;;;;;;;;;;;;;-143.90;75.02;55079.44;2084009;28;19920;-63
2022/03/23 06:57:48;;;;;;;;;;;;;;;-143.90;76.45;55079.44;2084973;28;20304;-63